Greenwood, Colorado
Current Conditions -  °F | °C
As of 12:35 PM on Thursday 30 Oct 2014 (Local Time) from K1V6 Reporting Station
Clear Clear  
Wind Chill: 61°   Ceiling: Unl
Heat Index: 61°   Visibility: 10mi
Dew Point: 25°   Wind: 6mph
Humidity: 25%   Direction: 110°ESE
Pressure: 30.37"   Gusts: NA
Location:  38.122°N, 105.131°W
Report Text: K1V6 301835Z AUTO 11005KT 10SM CLR 16/M04 A3037 RMK AO2
Loading
Personal Weather Stations






























Interactive Weather Map
Tropical Storm Tracking
New forecast layout! Learn more

10-Day Weather Forecast

Advertisements
Track Severe Weather on mobile